Time;durP1;ratioP1;P1;durP2;ratioP2;P2;SDS_P1;SDS_P2;PMS_P1;PMS_P2;Temp;Humidity;BMP_temperature;BMP_pressure;BME280_temperature;BME280_humidity;BME280_pressure;Samples;Min_cycle;Max_cycle;Signal;HPM_P1;HPM_P2
2022/12/31 00:01:01;;;;;;;0.52;0.40;;;;;;;9.81;100.00;92939.38;2081080;28;20020;-85
2022/12/31 00:02:02;;;;;;;1.08;0.50;;;;;;;9.80;100.00;92929.13;2078420;28;20025;-84
2022/12/31 00:03:08;;;;;;;2.20;0.50;;;;;;;9.99;100.00;92924.88;2074272;28;20017;-84
2022/12/31 00:04:09;;;;;;;0.40;0.40;;;;;;;10.14;100.00;92935.97;2094612;28;20025;-85
2022/12/31 00:05:10;;;;;;;0.30;0.30;;;;;;;10.08;100.00;92933.81;2096890;28;20043;-84
2022/12/31 00:06:20;;;;;;;0.75;0.40;;;;;;;9.99;100.00;92938.97;2092683;28;20021;-83
2022/12/31 00:07:21;;;;;;;1.30;0.35;;;;;;;9.97;100.00;92922.63;2093287;28;20028;-85
2022/12/31 00:08:22;;;;;;;0.50;0.47;;;;;;;10.16;100.00;92949.69;2086704;28;20009;-84
2022/12/31 00:09:23;;;;;;;0.30;0.30;;;;;;;10.12;100.00;92930.31;2092353;28;20017;-85
2022/12/31 00:10:24;;;;;;;0.45;0.38;;;;;;;10.25;100.00;92936.50;2090244;28;20021;-85
2022/12/31 00:11:28;;;;;;;0.40;0.40;;;;;;;10.28;100.00;92949.03;2086347;28;20768;-85
2022/12/31 00:12:33;;;;;;;2.05;0.45;;;;;;;10.31;100.00;92938.25;2087141;28;20803;-85
2022/12/31 00:13:35;;;;;;;1.33;0.47;;;;;;;10.16;100.00;92928.31;2095147;28;20066;-85
2022/12/31 00:35:11;;;;;;;0.93;0.35;;;;;;;9.95;100.00;92932.97;2074916;28;20053;-83
2022/12/31 00:36:25;;;;;;;1.10;0.40;;;;;;;10.23;100.00;92923.56;2084049;28;20268;-84
2022/12/31 00:37:33;;;;;;;0.60;0.40;;;;;;;10.23;100.00;92926.22;2089736;28;20033;-84
2022/12/31 00:38:45;;;;;;;0.38;0.32;;;;;;;10.25;100.00;92934.59;2087168;28;20032;-84
2022/12/31 00:39:52;;;;;;;2.25;0.60;;;;;;;10.32;100.00;92923.00;2080834;28;20108;-83
2022/12/31 00:41:02;;;;;;;0.60;0.50;;;;;;;10.33;100.00;92921.81;2089829;28;20119;-84
2022/12/31 00:42:08;;;;;;;;;;;;;;;10.23;100.00;92914.78;2090396;28;20037;-84
2022/12/31 00:43:17;;;;;;;1.65;0.40;;;;;;;10.22;100.00;92918.63;2082886;28;19925;-84
2022/12/31 00:44:26;;;;;;;0.98;0.40;;;;;;;10.43;100.00;92912.03;2081492;28;20021;-84
2022/12/31 00:45:34;;;;;;;0.65;0.40;;;;;;;10.23;100.00;92912.88;2078662;28;20488;-83
2022/12/31 00:46:43;;;;;;;1.35;0.60;;;;;;;10.12;100.00;92906.28;2079176;28;20025;-84
2022/12/31 00:47:52;;;;;;;0.73;0.40;;;;;;;10.19;100.00;92916.81;2091018;28;20035;-84
2022/12/31 00:48:58;;;;;;;0.45;0.32;;;;;;;10.11;100.00;92910.88;2098634;28;20031;-84
2022/12/31 00:50:15;;;;;;;1.23;0.40;;;;;;;9.92;100.00;92928.47;2096052;28;20024;-83
2022/12/31 00:51:26;;;;;;;1.65;0.60;;;;;;;9.98;100.00;92923.38;2087627;28;20116;-84
2022/12/31 00:52:35;;;;;;;1.75;0.40;;;;;;;9.97;100.00;92919.22;2079843;28;20053;-85
2022/12/31 00:53:43;;;;;;;1.48;0.63;;;;;;;10.23;100.00;92933.50;2091971;28;20027;-84
2022/12/31 00:54:51;;;;;;;0.40;0.40;;;;;;;10.22;100.00;92934.63;2091415;28;20025;-84
2022/12/31 00:56:04;;;;;;;0.77;0.32;;;;;;;10.19;100.00;92922.88;2091582;28;20017;-83
2022/12/31 00:57:13;;;;;;;0.60;0.45;;;;;;;10.20;100.00;92921.72;2091262;28;20106;-84
2022/12/31 00:58:31;;;;;;;0.40;0.40;;;;;;;10.41;100.00;92917.81;2096293;28;20031;-84
2022/12/31 00:59:38;;;;;;;0.60;0.35;;;;;;;10.45;100.00;92913.13;2101398;28;20030;-84
2022/12/31 01:00:40;;;;;;;0.93;0.50;;;;;;;10.49;100.00;92924.50;2090660;28;20028;-83
2022/12/31 01:01:41;;;;;;;0.68;0.40;;;;;;;10.72;100.00;92928.13;2088677;28;20021;-85
2022/12/31 01:02:42;;;;;;;1.27;0.75;;;;;;;10.58;100.00;92913.97;2089014;28;20051;-84
2022/12/31 01:03:45;;;;;;;0.75;0.40;;;;;;;10.53;100.00;92922.47;2095947;28;20027;-83
2022/12/31 01:04:46;;;;;;;0.70;0.38;;;;;;;10.41;100.00;92920.50;2081359;28;20029;-83
2022/12/31 01:05:49;;;;;;;0.40;0.30;;;;;;;10.35;100.00;92927.50;2088434;28;20071;-84
2022/12/31 01:06:50;;;;;;;0.90;0.50;;;;;;;10.29;100.00;92921.16;2089968;28;20033;-85
2022/12/31 01:07:51;;;;;;;0.70;0.45;;;;;;;10.48;100.00;92932.91;2089564;28;20020;-84
2022/12/31 01:08:54;;;;;;;0.40;0.40;;;;;;;10.49;100.00;92935.19;2089164;28;20021;-85
2022/12/31 01:09:55;;;;;;;0.43;0.30;;;;;;;10.60;100.00;92932.25;2096493;28;20028;-85
2022/12/31 01:12:16;;;;;;;1.25;0.40;;;;;;;10.30;100.00;92922.66;2094307;28;20095;-85
2022/12/31 01:13:17;;;;;;;0.75;0.50;;;;;;;10.13;100.00;92940.56;2097185;28;20502;-85
2022/12/31 01:14:19;;;;;;;0.70;0.40;;;;;;;10.09;100.00;92961.25;2085487;28;20491;-84
2022/12/31 01:15:20;;;;;;;0.47;0.47;;;;;;;10.27;100.00;92955.53;2105902;28;20052;-84
2022/12/31 01:16:24;;;;;;;0.93;0.52;;;;;;;10.31;100.00;92943.59;2105468;28;20086;-85
2022/12/31 01:17:26;;;;;;;0.40;0.40;;;;;;;10.26;100.00;92948.69;2096298;28;20044;-85
2022/12/31 01:18:27;;;;;;;0.85;0.47;;;;;;;10.61;100.00;92968.47;2088957;28;20025;-85
2022/12/31 01:19:28;;;;;;;0.30;0.30;;;;;;;10.71;100.00;92964.03;2087075;28;20028;-83
2022/12/31 01:20:34;;;;;;;1.02;0.40;;;;;;;10.56;100.00;92958.28;2093590;28;20036;-85
2022/12/31 01:21:37;;;;;;;0.40;0.40;;;;;;;10.38;100.00;92971.34;2094682;28;20487;-85
2022/12/31 01:22:38;;;;;;;1.48;0.57;;;;;;;10.46;100.00;92961.97;2081373;28;20021;-84
2022/12/31 01:23:39;;;;;;;1.52;0.47;;;;;;;10.62;100.00;92969.97;2093347;28;20048;-84
2022/12/31 01:24:40;;;;;;;0.75;0.30;;;;;;;10.76;100.00;92960.88;2089377;28;20056;-84
2022/12/31 01:25:41;;;;;;;1.02;0.45;;;;;;;10.51;100.00;92959.56;2089047;28;20380;-84
2022/12/31 01:26:43;;;;;;;0.40;0.40;;;;;;;10.54;100.00;92980.09;2080781;28;20033;-84
2022/12/31 01:27:44;;;;;;;1.38;0.50;;;;;;;10.72;100.00;92979.69;2072436;28;20018;-85
2022/12/31 01:28:45;;;;;;;0.40;0.40;;;;;;;10.93;100.00;92973.06;2080344;28;20021;-86
2022/12/31 01:29:46;;;;;;;0.68;0.30;;;;;;;10.77;100.00;92981.09;2084588;28;20604;-85
2022/12/31 01:30:47;;;;;;;0.90;0.40;;;;;;;10.56;100.00;92977.00;2087836;28;20037;-84
2022/12/31 01:31:48;;;;;;;0.40;0.40;;;;;;;10.46;100.00;92980.69;2083773;28;20518;-86
2022/12/31 01:32:49;;;;;;;0.50;0.50;;;;;;;10.53;100.00;92983.94;2075338;28;20041;-85
2022/12/31 01:33:51;;;;;;;1.08;0.43;;;;;;;10.65;100.00;92984.44;2084757;28;20107;-85
2022/12/31 01:34:52;;;;;;;0.80;0.40;;;;;;;10.48;100.00;92992.44;2092121;28;20078;-84
2022/12/31 01:35:53;;;;;;;1.15;0.50;;;;;;;10.58;100.00;93001.41;2101887;28;20044;-84
2022/12/31 01:36:54;;;;;;;0.35;0.32;;;;;;;10.64;100.00;92998.97;2097148;28;20040;-85
2022/12/31 01:37:55;;;;;;;0.40;0.40;;;;;;;10.76;100.00;93006.31;2088209;28;20468;-85
2022/12/31 01:38:58;;;;;;;0.73;0.30;;;;;;;10.75;100.00;92989.50;2080217;28;20025;-84
2022/12/31 01:39:59;;;;;;;0.35;0.30;;;;;;;10.92;100.00;92998.28;2092754;28;20021;-84
2022/12/31 01:41:00;;;;;;;1.35;0.57;;;;;;;10.76;100.00;92993.72;2087852;28;20020;-83
2022/12/31 01:42:01;;;;;;;0.50;0.47;;;;;;;10.69;100.00;92996.53;2086451;28;20075;-84
2022/12/31 01:43:02;;;;;;;0.40;0.40;;;;;;;10.75;100.00;92996.78;2088157;28;20057;-85
2022/12/31 01:44:11;;;;;;;0.88;0.55;;;;;;;10.85;100.00;92998.47;2092272;28;20230;-86
2022/12/31 01:45:13;;;;;;;1.17;0.43;;;;;;;10.74;100.00;93001.38;2100455;28;20028;-85
2022/12/31 01:46:42;;;;;;;0.40;0.40;;;;;;;10.70;100.00;93003.38;2096980;28;20399;-85
2022/12/31 01:47:48;;;;;;;0.88;0.40;;;;;;;11.08;100.00;93010.88;2088007;28;20729;-84
2022/12/31 01:48:52;;;;;;;1.05;0.50;;;;;;;10.89;100.00;93019.75;2080925;28;20085;-84
2022/12/31 01:50:00;;;;;;;1.52;0.50;;;;;;;10.87;100.00;93020.19;2075094;28;20017;-84
2022/12/31 01:51:01;;;;;;;0.40;0.40;;;;;;;10.90;100.00;93015.91;2088333;28;20031;-84
2022/12/31 01:52:12;;;;;;;0.50;0.30;;;;;;;10.79;100.00;93016.16;2095734;28;20115;-84
2022/12/31 01:53:14;;;;;;;;;;;;;;;10.78;100.00;93026.09;2090465;28;20021;-85
2022/12/31 01:54:19;;;;;;;0.20;0.20;;;;;;;10.86;100.00;93018.69;2080780;28;20636;-85
2022/12/31 01:55:32;;;;;;;0.30;0.30;;;;;;;10.85;100.00;93030.56;2089604;28;20099;-84
2022/12/31 01:56:34;;;;;;;0.88;0.40;;;;;;;11.09;100.00;93021.16;2088663;28;20653;-84
2022/12/31 01:57:36;;;;;;;0.50;0.30;;;;;;;10.93;100.00;93025.75;2087216;28;20048;-85
2022/12/31 01:58:43;;;;;;;0.30;0.30;;;;;;;11.09;100.00;93025.75;2081046;28;20175;-84
2022/12/31 01:59:44;;;;;;;0.80;0.40;;;;;;;10.96;100.00;93027.59;2081758;28;20160;-84
2022/12/31 02:00:46;;;;;;;1.15;0.47;;;;;;;11.16;100.00;93032.84;2080477;28;20079;-84
2022/12/31 02:01:51;;;;;;;0.40;0.40;;;;;;;11.11;100.00;93034.13;2081385;28;20053;-84
2022/12/31 02:02:52;;;;;;;1.80;0.40;;;;;;;11.10;100.00;93024.56;2093371;28;20032;-86
2022/12/31 02:03:55;;;;;;;1.20;0.20;;;;;;;10.92;100.00;93025.00;2081523;28;20728;-84
2022/12/31 02:04:58;;;;;;;0.47;0.30;;;;;;;10.84;100.00;93026.34;2081228;28;20160;-85
2022/12/31 02:06:22;;;;;;;0.77;0.38;;;;;;;10.87;100.00;93014.81;2080740;28;20040;-86
2022/12/31 02:07:23;;;;;;;0.68;0.45;;;;;;;11.03;100.00;93025.50;2095448;28;20105;-85
2022/12/31 02:08:24;;;;;;;1.05;0.50;;;;;;;11.01;100.00;93043.13;2088720;28;20475;-83
2022/12/31 02:09:25;;;;;;;0.57;0.30;;;;;;;11.00;100.00;93023.66;2072310;28;20029;-85
2022/12/31 02:10:27;;;;;;;0.32;0.30;;;;;;;11.08;100.00;93034.94;2075910;28;20695;-85
2022/12/31 02:11:33;;;;;;;0.20;0.20;;;;;;;11.06;100.00;93031.94;2088625;28;20033;-84
2022/12/31 02:12:34;;;;;;;2.40;0.43;;;;;;;10.99;100.00;93037.47;2090335;28;20120;-85
2022/12/31 02:13:35;;;;;;;1.05;0.50;;;;;;;11.19;100.00;93029.31;2080312;28;20036;-85
2022/12/31 02:14:42;;;;;;;0.30;0.30;;;;;;;11.09;100.00;93037.19;2080361;28;20519;-85
2022/12/31 02:18:01;;;;;;;;;;;;;;;11.04;100.00;93037.72;2139564;27;20173;-83
2022/12/31 02:19:42;;;;;;;0.45;0.30;;;;;;;10.78;100.00;93041.41;2125436;27;19919;-84
2022/12/31 02:21:04;;;;;;;0.52;0.30;;;;;;;11.21;100.00;93037.69;2127489;27;20916;-84
2022/12/31 02:22:15;;;;;;;4.00;0.32;;;;;;;11.01;100.00;93051.91;2115507;28;20027;-84
2022/12/31 02:23:19;;;;;;;0.32;0.30;;;;;;;10.99;100.00;93035.53;2098397;28;20029;-82
2022/12/31 02:24:44;;;;;;;1.15;0.40;;;;;;;11.07;100.00;93049.50;2096280;28;20028;-83
2022/12/31 02:26:25;;;;;;;0.30;0.30;;;;;;;11.12;100.00;93042.88;2110952;28;20031;-84
2022/12/31 02:27:32;;;;;;;0.52;0.52;;;;;;;10.99;100.00;93043.56;2122161;27;20414;-83
2022/12/31 02:28:45;;;;;;;1.05;0.30;;;;;;;10.88;100.00;93045.75;2113256;28;20035;-84
2022/12/31 02:30:34;;;;;;;1.05;0.30;;;;;;;11.14;100.00;93046.63;2105418;28;20179;-83
2022/12/31 02:31:42;;;;;;;0.47;0.20;;;;;;;11.20;100.00;93041.53;2097712;28;20031;-84
2022/12/31 02:32:48;;;;;;;1.63;0.40;;;;;;;11.08;100.00;93042.97;2114718;27;20027;-84
2022/12/31 02:33:55;;;;;;;0.85;0.30;;;;;;;11.09;100.00;93055.91;2105792;28;20028;-84
2022/12/31 02:35:09;;;;;;;0.82;0.40;;;;;;;11.24;100.00;93055.59;2105997;28;20024;-83
2022/12/31 02:36:16;;;;;;;1.08;0.60;;;;;;;11.29;100.00;93060.41;2113988;28;20028;-83
2022/12/31 02:37:22;;;;;;;0.43;0.20;;;;;;;11.21;100.00;93056.41;2105866;28;20017;-84
2022/12/31 02:38:31;;;;;;;0.30;0.30;;;;;;;11.05;100.00;93054.50;2114031;27;20028;-84
2022/12/31 02:39:34;;;;;;;0.57;0.45;;;;;;;10.99;100.00;93046.25;2105210;28;20676;-83
2022/12/31 02:40:37;;;;;;;0.82;0.38;;;;;;;11.14;100.00;93056.59;2087743;28;20025;-84
2022/12/31 02:41:50;;;;;;;0.40;0.38;;;;;;;11.18;100.00;93043.88;2096378;28;20359;-83
2022/12/31 02:42:51;;;;;;;0.43;0.30;;;;;;;11.15;100.00;93058.09;2097582;28;20076;-83
2022/12/31 02:43:52;;;;;;;0.32;0.30;;;;;;;10.92;100.00;93059.03;2112753;28;20024;-83
2022/12/31 02:44:53;;;;;;;0.30;0.30;;;;;;;10.86;100.00;93053.44;2112457;28;20061;-84
2022/12/31 02:46:19;;;;;;;0.32;0.30;;;;;;;10.76;100.00;93055.19;2112522;28;20026;-84
2022/12/31 02:47:50;;;;;;;1.92;0.47;;;;;;;10.81;100.00;93072.66;2111213;28;20029;-84
2022/12/31 02:49:29;;;;;;;0.22;0.22;;;;;;;10.79;100.00;93045.56;2101680;28;20097;-84
2022/12/31 02:50:54;;;;;;;0.47;0.30;;;;;;;10.67;100.00;93035.53;2106212;28;20028;-83
2022/12/31 02:52:30;;;;;;;0.30;0.30;;;;;;;10.77;100.00;93045.25;2102313;28;20028;-82
2022/12/31 02:53:51;;;;;;;0.30;0.30;;;;;;;10.81;100.00;93048.59;2093361;28;20425;-83
2022/12/31 02:55:16;;;;;;;0.40;0.30;;;;;;;10.74;100.00;93036.13;2109436;27;20115;-83
2022/12/31 02:56:26;;;;;;;0.30;0.30;;;;;;;11.06;100.00;93048.75;2107397;28;20517;-83
2022/12/31 02:58:15;;;;;;;0.30;0.30;;;;;;;10.76;100.00;93059.81;2101071;28;20051;-83
2022/12/31 03:02:25;;;;;;;0.20;0.20;;;;;;;10.83;100.00;93048.91;2108032;28;20098;-84
2022/12/31 03:03:27;;;;;;;0.30;0.30;;;;;;;10.94;100.00;93036.06;2097005;28;20020;-83
2022/12/31 03:04:31;;;;;;;0.20;0.20;;;;;;;11.19;100.00;93053.41;2087415;28;20076;-84
2022/12/31 03:05:38;;;;;;;0.30;0.30;;;;;;;10.98;100.00;93049.34;2096478;28;20074;-83
2022/12/31 03:06:40;;;;;;;0.30;0.22;;;;;;;10.90;100.00;93046.09;2096204;28;20470;-83
2022/12/31 03:07:43;;;;;;;0.20;0.20;;;;;;;10.94;100.00;93036.06;2096013;28;20021;-84
2022/12/31 03:10:03;;;;;;;1.30;0.28;;;;;;;11.19;100.00;93050.72;2107413;27;20081;-83
2022/12/31 03:12:44;;;;;;;0.30;0.30;;;;;;;11.03;100.00;93033.53;2121885;27;20023;-83
2022/12/31 03:12:46;;;;;;;0.35;0.28;;;;;;;11.18;100.00;93059.94;2115026;28;20023;-85
2022/12/31 03:13:47;;;;;;;0.32;0.30;;;;;;;11.20;100.00;93060.28;2106555;28;20024;-82
2022/12/31 03:14:48;;;;;;;0.60;0.30;;;;;;;11.14;100.00;93061.94;2103865;28;20028;-83
2022/12/31 03:15:49;;;;;;;0.95;0.25;;;;;;;11.05;100.00;93059.84;2095641;28;20458;-83
2022/12/31 03:16:50;;;;;;;0.30;0.30;;;;;;;10.87;100.00;93070.97;2103708;28;20056;-84
2022/12/31 03:17:59;;;;;;;0.50;0.30;;;;;;;10.86;100.00;93061.47;2103762;28;20028;-84
2022/12/31 03:23:03;;;;;;;;;;;;;;;10.98;100.00;93065.41;2121026;27;20114;-84
2022/12/31 03:25:39;;;;;;;0.57;0.40;;;;;;;10.88;100.00;93061.78;2118313;27;20026;-83
2022/12/31 03:26:41;;;;;;;0.52;0.30;;;;;;;11.05;100.00;93068.63;2118777;28;20055;-84
2022/12/31 03:27:43;;;;;;;0.38;0.38;;;;;;;11.01;100.00;93075.22;2107947;28;20034;-83
2022/12/31 03:28:46;;;;;;;0.20;0.20;;;;;;;10.91;100.00;93081.59;2100455;28;20036;-84
2022/12/31 03:29:47;;;;;;;0.47;0.20;;;;;;;11.12;100.00;93077.66;2092010;28;20020;-85
2022/12/31 03:30:51;;;;;;;0.43;0.20;;;;;;;11.29;100.00;93085.25;2098651;28;20027;-84
2022/12/31 03:31:52;;;;;;;0.30;0.30;;;;;;;11.15;100.00;93082.16;2103866;28;20035;-84
2022/12/31 03:32:55;;;;;;;0.75;0.40;;;;;;;11.10;100.00;93075.38;2105186;28;20020;-83
2022/12/31 03:33:56;;;;;;;0.30;0.30;;;;;;;11.03;100.00;93070.97;2100229;28;20449;-83
2022/12/31 03:34:57;;;;;;;0.32;0.32;;;;;;;11.10;100.00;93072.72;2114990;27;20031;-84
2022/12/31 03:35:58;;;;;;;1.80;0.40;;;;;;;11.10;100.00;93068.13;2115027;28;20080;-85
2022/12/31 03:36:59;;;;;;;0.30;0.30;;;;;;;11.06;100.00;93064.03;2092554;28;20491;-84
2022/12/31 03:38:00;;;;;;;1.00;0.30;;;;;;;11.00;100.00;93066.47;2089855;28;20090;-83
2022/12/31 03:39:02;;;;;;;0.30;0.30;;;;;;;10.88;100.00;93061.03;2093716;28;20029;-83
2022/12/31 03:40:04;;;;;;;1.02;0.40;;;;;;;10.83;100.00;93060.38;2097778;28;20139;-83
2022/12/31 03:41:08;;;;;;;0.22;0.22;;;;;;;10.91;100.00;93044.16;2089961;28;20446;-83
2022/12/31 03:42:09;;;;;;;1.10;0.32;;;;;;;11.14;100.00;93054.66;2090411;28;20167;-83
2022/12/31 03:43:10;;;;;;;0.50;0.30;;;;;;;11.13;100.00;93049.75;2090069;28;20485;-83
2022/12/31 03:44:11;;;;;;;0.32;0.28;;;;;;;11.05;100.00;93059.84;2089954;28;20020;-82
2022/12/31 03:45:13;;;;;;;0.30;0.30;;;;;;;10.92;100.00;93049.06;2089890;28;20693;-82
2022/12/31 03:46:13;;;;;;;0.28;0.28;;;;;;;11.00;100.00;93058.44;2098022;28;20462;-83
2022/12/31 03:47:30;;;;;;;1.00;0.30;;;;;;;10.95;100.00;93066.97;2093343;28;20116;-83
2022/12/31 03:48:31;;;;;;;0.38;0.38;;;;;;;10.87;100.00;93054.19;2097834;28;20025;-83
2022/12/31 03:49:32;;;;;;;0.38;0.25;;;;;;;11.26;100.00;93062.00;2097910;28;20457;-83
2022/12/31 03:50:34;;;;;;;0.80;0.30;;;;;;;11.09;100.00;93087.28;2105882;28;20114;-83
2022/12/31 03:51:35;;;;;;;0.60;0.50;;;;;;;11.15;100.00;93064.22;2097854;28;20020;-84
2022/12/31 03:52:36;;;;;;;1.13;0.30;;;;;;;11.19;100.00;93072.13;2093109;28;20059;-84
2022/12/31 03:53:37;;;;;;;0.50;0.50;;;;;;;11.10;100.00;93068.13;2090002;28;20095;-84
2022/12/31 03:54:38;;;;;;;0.30;0.30;;;;;;;11.03;100.00;93072.91;2081691;28;20028;-83
2022/12/31 03:55:39;;;;;;;1.13;0.30;;;;;;;11.15;100.00;93053.50;2092838;28;20079;-83
2022/12/31 03:56:40;;;;;;;1.08;0.40;;;;;;;11.21;100.00;93072.47;2098313;28;20098;-83
2022/12/31 03:57:41;;;;;;;1.55;0.40;;;;;;;11.24;100.00;93063.63;2101924;28;20012;-84
2022/12/31 03:58:42;;;;;;;0.30;0.30;;;;;;;11.20;100.00;93070.97;2098479;28;20424;-84
2022/12/31 03:59:43;;;;;;;1.52;0.40;;;;;;;11.25;100.00;93063.19;2098176;28;20029;-84
2022/12/31 04:00:44;;;;;;;1.27;0.40;;;;;;;11.14;100.00;93070.72;2097493;28;20516;-83
2022/12/31 04:01:46;;;;;;;0.85;0.30;;;;;;;11.24;100.00;93063.63;2098287;28;20039;-83
2022/12/31 04:02:48;;;;;;;0.30;0.30;;;;;;;11.28;100.00;93065.03;2097971;28;20056;-84
2022/12/31 04:03:48;;;;;;;0.32;0.32;;;;;;;11.42;100.00;93058.56;2106470;28;20412;-84
2022/12/31 04:04:49;;;;;;;0.30;0.30;;;;;;;11.57;100.00;93062.34;2120069;27;20023;-84
2022/12/31 04:05:53;;;;;;;1.65;0.40;;;;;;;11.33;100.00;93067.19;2097231;28;20035;-84
2022/12/31 04:06:54;;;;;;;0.30;0.30;;;;;;;11.19;100.00;93059.50;2089793;28;20025;-84
2022/12/31 04:07:55;;;;;;;1.92;0.40;;;;;;;11.27;100.00;93070.78;2081383;28;20028;-83
2022/12/31 04:08:56;;;;;;;0.43;0.30;;;;;;;11.22;100.00;93079.31;2081981;28;20030;-84
2022/12/31 04:09:57;;;;;;;0.30;0.30;;;;;;;11.24;100.00;93075.06;2089594;28;20035;-82
2022/12/31 04:10:58;;;;;;;1.80;0.43;;;;;;;11.18;100.00;93078.66;2081101;28;20056;-83
2022/12/31 04:11:59;;;;;;;0.30;0.30;;;;;;;11.12;100.00;93077.66;2108501;28;20015;-84
2022/12/31 04:13:03;;;;;;;1.45;0.30;;;;;;;11.16;100.00;93071.06;2106354;28;20039;-83
2022/12/31 04:14:06;;;;;;;0.85;0.50;;;;;;;11.22;100.00;93085.41;2097459;28;20031;-83
2022/12/31 04:15:09;;;;;;;0.40;0.40;;;;;;;11.22;100.00;93087.34;2090429;28;20086;-84
2022/12/31 04:16:10;;;;;;;0.40;0.40;;;;;;;11.35;100.00;93083.56;2089724;28;20082;-83
2022/12/31 04:17:11;;;;;;;0.40;0.40;;;;;;;11.32;100.00;93076.38;2089279;28;20041;-84
2022/12/31 04:18:12;;;;;;;0.45;0.25;;;;;;;11.15;100.00;93072.22;2081476;28;20118;-84
2022/12/31 04:19:13;;;;;;;0.30;0.30;;;;;;;11.09;100.00;93071.97;2081460;28;20052;-84
2022/12/31 04:20:15;;;;;;;0.40;0.40;;;;;;;11.01;100.00;93073.31;2080978;28;20514;-84
2022/12/31 04:21:16;;;;;;;1.75;0.30;;;;;;;10.99;100.00;93077.59;2090577;28;20036;-84
2022/12/31 04:22:18;;;;;;;0.40;0.40;;;;;;;11.16;100.00;93076.41;2105525;28;20084;-83
2022/12/31 04:23:19;;;;;;;0.30;0.30;;;;;;;11.13;100.00;93071.88;2105669;28;20031;-83
2022/12/31 04:24:20;;;;;;;0.30;0.30;;;;;;;11.37;100.00;93075.13;2097552;28;20031;-82
2022/12/31 04:25:21;;;;;;;0.85;0.47;;;;;;;11.21;100.00;93075.16;2098939;28;20016;-83
2022/12/31 04:26:22;;;;;;;0.47;0.30;;;;;;;11.06;100.00;93082.75;2114723;28;20037;-83
2022/12/31 04:27:23;;;;;;;0.73;0.20;;;;;;;11.64;100.00;93077.50;2105739;28;20016;-83
2022/12/31 04:28:24;;;;;;;0.40;0.38;;;;;;;11.49;100.00;93077.09;2081294;28;20021;-84
2022/12/31 04:29:25;;;;;;;0.30;0.30;;;;;;;11.50;100.00;93067.13;2089478;28;20020;-83
2022/12/31 04:30:26;;;;;;;0.50;0.40;;;;;;;11.52;100.00;93076.25;2097543;28;20024;-83
2022/12/31 04:31:27;;;;;;;1.67;0.30;;;;;;;11.45;100.00;93081.78;2089219;28;20021;-83
2022/12/31 04:32:28;;;;;;;1.15;0.40;;;;;;;11.51;100.00;93076.69;2089434;28;20036;-84
2022/12/31 04:33:29;;;;;;;1.38;0.40;;;;;;;11.39;100.00;93080.78;2097699;28;20024;-84
2022/12/31 04:34:31;;;;;;;3.13;0.40;;;;;;;11.49;100.00;93079.00;2097621;28;20025;-84
2022/12/31 04:35:32;;;;;;;0.43;0.40;;;;;;;11.51;100.00;93074.00;2085274;28;20104;-84
2022/12/31 04:36:33;;;;;;;0.28;0.28;;;;;;;11.41;100.00;93073.09;2089474;28;20025;-83
2022/12/31 04:37:34;;;;;;;0.30;0.30;;;;;;;11.44;100.00;93085.63;2089483;28;20403;-84
2022/12/31 04:38:35;;;;;;;0.30;0.30;;;;;;;11.58;100.00;93079.91;2089397;28;20413;-83
2022/12/31 04:39:36;;;;;;;0.30;0.30;;;;;;;11.45;100.00;93081.03;2097831;28;20024;-83
2022/12/31 04:41:15;;;;;;;1.23;0.40;;;;;;;11.30;100.00;93077.97;2096778;28;20029;-84
2022/12/31 04:41:58;;;;;;;0.40;0.40;;;;;;;11.30;100.00;93076.03;2103149;28;20032;-83
2022/12/31 04:42:59;;;;;;;0.30;0.30;;;;;;;11.33;100.00;93077.13;2105838;28;20024;-82
2022/12/31 04:44:01;;;;;;;1.35;0.38;;;;;;;11.42;100.00;93087.25;2097777;28;20027;-84
2022/12/31 04:45:03;;;;;;;1.38;0.30;;;;;;;11.35;100.00;93096.19;2089529;28;20029;-82
2022/12/31 04:46:05;;;;;;;0.95;0.38;;;;;;;11.30;100.00;93092.09;2097758;28;20417;-84
2022/12/31 04:47:07;;;;;;;1.35;0.20;;;;;;;11.73;100.00;93095.63;2114174;28;20475;-84
2022/12/31 04:48:08;;;;;;;0.30;0.30;;;;;;;11.51;100.00;93090.06;2105635;28;20171;-83
2022/12/31 04:49:09;;;;;;;0.43;0.38;;;;;;;11.30;100.00;93086.75;2089180;28;20028;-84
2022/12/31 04:50:10;;;;;;;0.65;0.30;;;;;;;11.29;100.00;93079.16;2089134;28;20020;-83
2022/12/31 04:51:12;;;;;;;0.32;0.30;;;;;;;11.32;100.00;93086.31;2105460;28;20051;-83
2022/12/31 04:52:13;;;;;;;0.28;0.28;;;;;;;11.24;100.00;93074.31;2105215;28;20094;-84
2022/12/31 04:53:14;;;;;;;0.30;0.30;;;;;;;11.13;100.00;93087.94;2105603;28;20020;-83
2022/12/31 04:54:15;;;;;;;0.30;0.30;;;;;;;11.07;100.00;93076.25;2105787;28;20039;-83
2022/12/31 04:55:16;;;;;;;2.47;0.40;;;;;;;11.25;100.00;93099.88;2105907;28;20800;-83
2022/12/31 04:56:17;;;;;;;0.52;0.30;;;;;;;11.43;100.00;93081.47;2105865;28;20020;-82
2022/12/31 04:57:18;;;;;;;1.00;0.32;;;;;;;11.35;100.00;93083.56;2106278;28;20028;-84
2022/12/31 04:58:20;;;;;;;2.15;0.38;;;;;;;11.24;100.00;93085.03;2097666;28;20031;-84
2022/12/31 04:59:21;;;;;;;1.08;0.30;;;;;;;11.46;100.00;93085.22;2097589;28;20031;-83
2022/12/31 05:00:22;;;;;;;0.17;0.17;;;;;;;11.30;100.00;93091.34;2093777;28;20017;-84
2022/12/31 05:01:23;;;;;;;0.20;0.20;;;;;;;11.32;100.00;93097.78;2097551;28;20384;-83
2022/12/31 05:02:24;;;;;;;0.63;0.30;;;;;;;11.64;100.00;93085.53;2097319;28;20025;-82
2022/12/31 05:03:26;;;;;;;0.40;0.28;;;;;;;11.46;100.00;93096.69;2097169;28;20024;-82
2022/12/31 05:04:27;;;;;;;0.45;0.40;;;;;;;11.72;100.00;93084.16;2088941;28;20028;-84
2022/12/31 05:05:28;;;;;;;0.22;0.22;;;;;;;11.64;100.00;93100.84;2088918;28;20545;-83
2022/12/31 05:06:29;;;;;;;0.30;0.30;;;;;;;11.64;100.00;93114.22;2088829;28;20040;-83
2022/12/31 05:07:30;;;;;;;1.55;0.40;;;;;;;11.57;100.00;93093.72;2088974;28;20144;-83
2022/12/31 05:08:32;;;;;;;0.30;0.30;;;;;;;11.61;100.00;93094.38;2080808;28;20088;-83
2022/12/31 05:09:33;;;;;;;1.75;0.30;;;;;;;11.81;100.00;93099.63;2089008;28;20074;-84
2022/12/31 05:10:35;;;;;;;0.30;0.30;;;;;;;11.67;100.00;93097.28;2103325;28;20027;-82
2022/12/31 05:11:36;;;;;;;0.90;0.30;;;;;;;11.74;100.00;93095.19;2098651;28;20226;-83
2022/12/31 05:12:37;;;;;;;0.95;0.30;;;;;;;11.72;100.00;93115.50;2089505;28;20049;-83
2022/12/31 05:13:39;;;;;;;1.35;0.32;;;;;;;11.80;100.00;93100.75;2088902;28;20021;-83
2022/12/31 05:14:40;;;;;;;0.52;0.30;;;;;;;11.58;100.00;93104.00;2088807;28;20029;-83
2022/12/31 05:15:41;;;;;;;1.40;0.40;;;;;;;11.49;100.00;93111.88;2088834;28;20090;-82
2022/12/31 05:16:42;;;;;;;0.20;0.20;;;;;;;11.95;100.00;93112.66;2089167;28;20025;-82
2022/12/31 05:17:43;;;;;;;0.40;0.40;;;;;;;11.92;100.00;93102.78;2089010;28;20051;-83
2022/12/31 05:18:44;;;;;;;0.40;0.40;;;;;;;11.83;100.00;93099.97;2098896;28;20553;-82
2022/12/31 05:19:45;;;;;;;0.32;0.30;;;;;;;11.81;100.00;93108.41;2102567;28;20032;-84
2022/12/31 05:20:46;;;;;;;0.85;0.32;;;;;;;11.61;100.00;93107.78;2096659;28;20035;-83
2022/12/31 05:22:27;;;;;;;0.80;0.30;;;;;;;11.46;100.00;93096.69;2088764;28;20440;-83
2022/12/31 05:23:09;;;;;;;1.67;0.40;;;;;;;11.64;100.00;93108.88;2102715;28;20042;-83
2022/12/31 05:24:10;;;;;;;0.73;0.40;;;;;;;11.54;100.00;93099.91;2097210;28;20024;-84
2022/12/31 05:25:11;;;;;;;0.65;0.40;;;;;;;11.47;100.00;93095.50;2097441;28;20020;-84
2022/12/31 05:26:12;;;;;;;0.63;0.52;;;;;;;11.65;100.00;93102.34;2097441;28;20028;-83
2022/12/31 05:27:13;;;;;;;0.73;0.40;;;;;;;11.58;100.00;93093.28;2096860;28;20393;-84
2022/12/31 05:28:15;;;;;;;0.22;0.22;;;;;;;11.41;100.00;93096.44;2101355;28;20016;-83
2022/12/31 05:29:16;;;;;;;0.50;0.30;;;;;;;11.32;100.00;93095.09;2097334;28;20039;-82
2022/12/31 05:30:20;;;;;;;0.43;0.30;;;;;;;11.39;100.00;93110.25;2098884;28;20055;-83
2022/12/31 05:31:22;;;;;;;0.40;0.30;;;;;;;11.42;100.00;93098.69;2106289;28;20400;-83
2022/12/31 05:32:23;;;;;;;0.68;0.50;;;;;;;11.66;100.00;93107.25;2114139;28;20042;-83
2022/12/31 05:33:24;;;;;;;1.60;0.32;;;;;;;11.54;100.00;93107.94;2099801;28;20025;-84
2022/12/31 05:34:26;;;;;;;0.30;0.30;;;;;;;11.62;100.00;93103.16;2097535;28;20466;-83
2022/12/31 05:35:29;;;;;;;2.33;0.50;;;;;;;11.54;100.00;93106.00;2105928;28;20019;-83
2022/12/31 05:36:30;;;;;;;0.68;0.32;;;;;;;11.40;100.00;93106.38;2097311;28;20028;-83